Time;durP1;ratioP1;P1;durP2;ratioP2;P2;SDS_P1;SDS_P2;PMS_P1;PMS_P2;Temp;Humidity;BMP_temperature;BMP_pressure;BME280_temperature;BME280_humidity;BME280_pressure;Samples;Min_cycle;Max_cycle;Signal;HPM_P1;HPM_P2
2023/08/22 00:00:06;;;;;;;33.03;31.63;;;26.70;96.10;;;;;;4971195;28;20500;-53
2023/08/22 00:02:33;;;;;;;31.20;29.90;;;26.70;96.20;;;;;;4971280;28;21012;-53
2023/08/22 00:05:03;;;;;;;31.87;30.57;;;26.60;96.40;;;;;;4971359;28;20538;-53
2023/08/22 00:07:30;;;;;;;32.47;31.03;;;26.60;96.50;;;;;;4954342;28;20504;-52
2023/08/22 00:09:56;;;;;;;32.10;30.80;;;26.60;96.60;;;;;;4952302;28;20512;-53
2023/08/22 00:12:23;;;;;;;29.70;28.50;;;26.60;96.70;;;;;;4951940;29;20488;-51
2023/08/22 00:14:51;;;;;;;32.77;31.33;;;26.60;97.00;;;;;;4952247;28;20473;-52
2023/08/22 00:17:18;;;;;;;32.10;30.63;;;26.60;97.00;;;;;;4952333;28;20537;-52
2023/08/22 00:19:45;;;;;;;32.67;31.17;;;26.50;97.10;;;;;;4952108;28;20513;-51
2023/08/22 00:22:14;;;;;;;30.60;29.27;;;26.50;97.30;;;;;;4952310;29;20484;-51
2023/08/22 00:24:40;;;;;;;30.03;28.80;;;26.50;97.50;;;;;;4951886;28;21071;-52
2023/08/22 00:27:07;;;;;;;30.03;28.63;;;26.50;97.60;;;;;;4952035;28;20474;-53
2023/08/22 00:29:34;;;;;;;30.20;28.90;;;26.40;97.60;;;;;;4952177;28;20514;-51
2023/08/22 00:32:01;;;;;;;32.33;30.73;;;26.40;97.70;;;;;;4951416;28;20472;-54
2023/08/22 00:34:28;;;;;;;32.33;30.83;;;26.40;98.00;;;;;;4951821;28;20528;-55
2023/08/22 00:36:55;;;;;;;32.13;30.83;;;26.40;98.20;;;;;;4962941;28;20892;-56
2023/08/22 00:39:24;;;;;;;34.10;32.30;;;26.30;98.20;;;;;;4971450;28;20506;-54
2023/08/22 00:41:51;;;;;;;30.23;28.97;;;26.30;98.30;;;;;;4971420;28;20467;-53
2023/08/22 00:44:19;;;;;;;29.60;28.27;;;26.30;98.60;;;;;;4970817;28;20551;-55
2023/08/22 00:46:47;;;;;;;31.90;30.40;;;26.30;98.70;;;;;;4961069;28;20485;-51
2023/08/22 00:49:14;;;;;;;32.87;31.50;;;26.30;98.70;;;;;;4951331;28;20480;-53
2023/08/22 00:51:42;;;;;;;32.20;30.60;;;26.30;98.90;;;;;;4951441;29;20496;-49
2023/08/22 00:54:09;;;;;;;31.30;29.90;;;26.30;98.90;;;;;;4951335;29;20699;-55
2023/08/22 00:56:38;;;;;;;32.17;30.30;;;26.30;99.10;;;;;;4956218;28;20480;-53
2023/08/22 00:59:05;;;;;;;32.00;30.40;;;26.20;99.20;;;;;;4970703;28;20487;-52
2023/08/22 01:01:32;;;;;;;31.27;30.00;;;26.20;99.20;;;;;;4970504;28;20496;-51
2023/08/22 01:03:59;;;;;;;32.67;31.27;;;26.20;99.30;;;;;;4969316;28;20475;-53
2023/08/22 01:06:36;;;;;;;30.23;29.03;;;26.20;99.40;;;;;;4965908;28;20445;-51
2023/08/22 01:09:10;;;;;;;30.63;29.33;;;26.20;99.60;;;;;;4951321;28;20492;-51
2023/08/22 01:11:42;;;;;;;30.00;28.60;;;26.20;99.50;;;;;;4951363;28;20469;-51
2023/08/22 01:14:12;;;;;;;30.60;29.30;;;26.20;99.80;;;;;;4951387;28;20480;-51
2023/08/22 01:16:40;;;;;;;32.80;31.30;;;26.20;99.90;;;;;;4951038;28;20499;-52
2023/08/22 01:19:09;;;;;;;32.00;30.60;;;26.10;99.90;;;;;;4951902;29;20472;-53
2023/08/22 01:21:36;;;;;;;31.80;30.50;;;26.10;99.90;;;;;;4951460;28;20579;-51
2023/08/22 01:24:06;;;;;;;32.03;30.37;;;26.10;99.90;;;;;;4954571;28;20483;-51
2023/08/22 01:26:33;;;;;;;31.20;29.70;;;26.10;99.90;;;;;;4954779;28;20480;-54
2023/08/22 01:29:10;;;;;;;33.00;31.50;;;26.10;99.90;;;;;;4954788;29;20451;-51
2023/08/22 01:31:45;;;;;;;30.93;29.73;;;26.10;99.90;;;;;;4954469;28;20563;-53
2023/08/22 01:34:18;;;;;;;34.27;32.87;;;26.10;99.90;;;;;;4968801;28;20452;-53
2023/08/22 01:36:47;;;;;;;32.20;30.87;;;26.10;99.90;;;;;;4973657;28;20870;-55
2023/08/22 01:39:17;;;;;;;33.60;32.20;;;26.10;99.90;;;;;;4973498;28;20875;-53
2023/08/22 01:41:44;;;;;;;34.17;32.70;;;26.10;99.90;;;;;;4965360;28;20487;-52
2023/08/22 01:44:11;;;;;;;31.30;29.97;;;26.10;99.90;;;;;;4954127;29;21031;-54
2023/08/22 01:46:38;;;;;;;30.43;29.13;;;26.00;99.90;;;;;;4954456;28;20477;-51
2023/08/22 01:49:05;;;;;;;33.67;32.10;;;26.00;99.90;;;;;;4954543;28;20485;-51
2023/08/22 01:51:32;;;;;;;30.93;29.70;;;26.00;99.90;;;;;;4960138;28;20533;-54
2023/08/22 01:53:59;;;;;;;31.73;30.43;;;26.00;99.90;;;;;;4973838;28;20475;-51
2023/08/22 01:56:27;;;;;;;33.87;32.37;;;26.00;99.90;;;;;;4973397;28;20943;-53
2023/08/22 01:58:55;;;;;;;31.87;30.47;;;26.00;99.90;;;;;;4973171;28;20484;-52
2023/08/22 02:01:23;;;;;;;31.67;30.17;;;26.00;99.90;;;;;;4968236;28;20500;-55
2023/08/22 02:03:50;;;;;;;32.40;31.00;;;26.00;99.90;;;;;;4953612;29;20516;-51
2023/08/22 02:06:17;;;;;;;33.30;31.80;;;26.00;99.90;;;;;;4953646;29;20519;-51
2023/08/22 02:08:44;;;;;;;30.57;29.27;;;26.00;99.90;;;;;;4954009;28;20491;-52
2023/08/22 02:11:11;;;;;;;33.47;31.73;;;26.00;99.90;;;;;;4956358;28;20531;-52
2023/08/22 02:13:39;;;;;;;30.33;29.13;;;25.90;99.90;;;;;;4965260;28;20574;-52
2023/08/22 02:16:06;;;;;;;30.63;29.27;;;25.90;99.90;;;;;;4972914;28;20923;-51
2023/08/22 02:18:33;;;;;;;32.57;30.87;;;25.90;99.90;;;;;;4973214;28;20878;-52
2023/08/22 02:21:00;;;;;;;32.40;31.10;;;25.90;99.90;;;;;;4972509;28;21003;-53
2023/08/22 02:23:27;;;;;;;30.43;29.10;;;25.90;99.90;;;;;;4972871;28;20479;-53
2023/08/22 02:25:55;;;;;;;32.20;30.67;;;25.90;99.90;;;;;;4973079;28;20571;-53
2023/08/22 02:28:22;;;;;;;31.50;30.00;;;25.90;99.90;;;;;;4972803;28;20452;-50
2023/08/22 02:30:55;;;;;;;29.90;28.50;;;25.90;99.90;;;;;;4973215;28;20537;-54
2023/08/22 02:33:22;;;;;;;30.23;29.03;;;25.90;99.90;;;;;;4972704;28;20444;-51
2023/08/22 02:35:49;;;;;;;30.53;29.13;;;25.90;99.90;;;;;;4973053;28;20914;-52
2023/08/22 02:38:16;;;;;;;29.63;28.33;;;25.90;99.90;;;;;;4973179;28;20459;-53
2023/08/22 02:40:43;;;;;;;33.07;31.37;;;25.90;99.90;;;;;;4972850;28;20522;-51
2023/08/22 02:43:10;;;;;;;30.20;29.00;;;25.80;99.90;;;;;;4971884;28;20947;-53
2023/08/22 02:45:38;;;;;;;32.07;30.60;;;25.90;99.90;;;;;;4972832;28;21037;-55
2023/08/22 02:48:07;;;;;;;30.93;29.40;;;25.90;99.90;;;;;;4972610;28;20949;-52
2023/08/22 02:50:34;;;;;;;31.60;30.20;;;25.90;99.90;;;;;;4963770;28;21325;-51
2023/08/22 02:53:01;;;;;;;31.07;29.70;;;25.90;99.90;;;;;;4958348;28;20522;-52
2023/08/22 02:55:27;;;;;;;31.27;29.70;;;25.80;99.90;;;;;;4972351;28;20491;-51
2023/08/22 02:57:54;;;;;;;29.50;28.27;;;25.80;99.90;;;;;;4972478;28;20483;-52
2023/08/22 03:00:21;;;;;;;31.77;30.20;;;25.80;99.90;;;;;;4962971;28;20508;-50
2023/08/22 03:02:48;;;;;;;31.80;30.40;;;25.80;99.90;;;;;;4952541;29;20900;-51
2023/08/22 03:05:17;;;;;;;31.70;30.30;;;25.80;99.90;;;;;;4952921;29;20881;-55
2023/08/22 03:07:44;;;;;;;31.50;30.10;;;25.80;99.90;;;;;;4952658;28;20540;-53
2023/08/22 03:10:11;;;;;;;32.60;30.90;;;25.80;99.90;;;;;;4952934;28;20914;-54
2023/08/22 03:12:38;;;;;;;31.50;30.00;;;25.80;99.90;;;;;;4953034;28;20444;-54
2023/08/22 03:15:06;;;;;;;31.60;30.30;;;25.80;99.90;;;;;;4952544;28;20476;-52
2023/08/22 03:17:33;;;;;;;31.83;30.53;;;25.80;99.90;;;;;;4952646;28;20448;-52
2023/08/22 03:20:00;;;;;;;31.77;30.30;;;25.80;99.90;;;;;;4956149;28;20522;-53
2023/08/22 03:22:28;;;;;;;31.40;30.00;;;25.70;99.90;;;;;;4952291;28;20476;-52
2023/08/22 03:24:55;;;;;;;32.03;30.60;;;25.80;99.90;;;;;;4952655;28;20899;-52
2023/08/22 03:27:22;;;;;;;32.97;31.20;;;25.70;99.90;;;;;;4952652;28;20484;-53
2023/08/22 03:29:49;;;;;;;32.43;30.83;;;25.80;99.90;;;;;;4952750;28;20488;-52
2023/08/22 03:32:16;;;;;;;31.97;30.40;;;25.70;99.90;;;;;;4952388;28;20493;-55
2023/08/22 03:34:42;;;;;;;34.10;32.50;;;25.70;99.90;;;;;;4952290;28;20984;-51
2023/08/22 03:37:09;;;;;;;32.97;31.57;;;25.70;99.90;;;;;;4952659;28;20479;-52
2023/08/22 03:39:38;;;;;;;33.63;32.13;;;25.70;99.90;;;;;;4952034;28;20452;-53
2023/08/22 03:42:05;;;;;;;36.37;34.67;;;25.70;99.90;;;;;;4952514;28;20956;-51
2023/08/22 03:44:32;;;;;;;32.73;31.13;;;25.70;99.90;;;;;;4952315;29;20475;-53
2023/08/22 03:46:59;;;;;;;32.80;31.30;;;25.70;99.90;;;;;;4957507;28;20924;-55
2023/08/22 03:49:26;;;;;;;31.17;29.77;;;25.70;99.90;;;;;;4971477;28;20773;-53
2023/08/22 03:51:53;;;;;;;32.17;30.67;;;25.70;99.90;;;;;;4971096;28;20496;-52
2023/08/22 03:54:20;;;;;;;30.87;29.53;;;25.70;99.90;;;;;;4971042;28;20476;-52
2023/08/22 03:56:48;;;;;;;33.90;32.30;;;25.70;99.90;;;;;;4953155;28;20477;-53
2023/08/22 03:59:15;;;;;;;31.77;30.37;;;25.70;99.90;;;;;;4951809;28;20477;-50
2023/08/22 04:01:42;;;;;;;35.27;33.57;;;25.70;99.90;;;;;;4951766;28;20496;-53
2023/08/22 04:04:09;;;;;;;36.60;34.70;;;25.70;99.90;;;;;;4951798;28;20483;-54
2023/08/22 04:06:36;;;;;;;34.90;33.20;;;25.70;99.90;;;;;;4968444;28;20484;-51
2023/08/22 04:09:02;;;;;;;32.87;31.37;;;25.70;99.90;;;;;;4970945;28;20555;-52
2023/08/22 04:11:29;;;;;;;33.80;32.23;;;25.70;99.90;;;;;;4971022;28;20831;-52
2023/08/22 04:13:58;;;;;;;34.13;32.30;;;25.70;99.90;;;;;;4971002;28;20854;-52
2023/08/22 04:16:24;;;;;;;35.87;33.97;;;25.70;99.90;;;;;;4960322;28;20475;-53
2023/08/22 04:18:51;;;;;;;34.90;33.30;;;25.70;99.90;;;;;;4967088;28;20893;-51
2023/08/22 04:21:18;;;;;;;37.27;35.47;;;25.70;99.90;;;;;;4970798;28;20915;-50
2023/08/22 04:23:45;;;;;;;33.90;32.40;;;25.70;99.90;;;;;;4969839;28;20472;-51
2023/08/22 04:26:12;;;;;;;33.80;32.40;;;25.70;99.90;;;;;;4956993;28;20511;-51
2023/08/22 04:28:39;;;;;;;35.77;33.90;;;25.70;99.90;;;;;;4950652;28;20488;-52
2023/08/22 04:31:07;;;;;;;33.50;31.90;;;25.60;99.90;;;;;;4950609;28;20496;-52
2023/08/22 04:33:34;;;;;;;35.17;33.40;;;25.70;99.90;;;;;;4950601;28;20856;-50
2023/08/22 04:36:01;;;;;;;35.23;33.53;;;25.70;99.90;;;;;;4959977;28;20874;-50
2023/08/22 04:38:27;;;;;;;36.60;34.80;;;25.70;99.90;;;;;;4969840;28;20869;-51
2023/08/22 04:40:54;;;;;;;34.80;33.20;;;25.70;99.90;;;;;;4969062;28;20518;-52
2023/08/22 04:43:21;;;;;;;37.33;35.23;;;25.70;99.90;;;;;;4950353;28;20475;-54
2023/08/22 04:45:51;;;;;;;36.77;34.57;;;25.70;99.90;;;;;;4950134;28;20523;-50
2023/08/22 04:48:20;;;;;;;36.33;34.57;;;25.70;99.90;;;;;;4950582;29;20453;-52
2023/08/22 04:50:46;;;;;;;34.53;32.47;;;25.70;99.90;;;;;;4950370;28;20461;-50
2023/08/22 04:53:13;;;;;;;35.83;34.03;;;25.70;99.90;;;;;;4950203;28;20891;-54
2023/08/22 04:55:40;;;;;;;38.37;36.17;;;25.60;99.90;;;;;;4950473;28;20896;-51
2023/08/22 04:58:07;;;;;;;35.63;34.03;;;25.70;99.90;;;;;;4952744;28;20880;-53
2023/08/22 05:00:34;;;;;;;34.50;32.90;;;25.70;99.90;;;;;;4953732;28;20903;-51
2023/08/22 05:03:01;;;;;;;35.77;33.83;;;25.70;99.90;;;;;;4953644;28;20889;-51
2023/08/22 05:05:29;;;;;;;35.10;33.20;;;25.70;99.90;;;;;;4953652;28;20516;-51
2023/08/22 05:07:56;;;;;;;35.23;33.43;;;25.70;99.90;;;;;;4953580;29;20472;-53
2023/08/22 05:10:23;;;;;;;36.90;35.00;;;25.70;99.90;;;;;;4953440;28;20552;-50
2023/08/22 05:12:51;;;;;;;34.47;32.87;;;25.70;99.90;;;;;;4953308;29;20914;-50
2023/08/22 05:15:18;;;;;;;36.10;34.30;;;25.70;99.90;;;;;;4953472;28;20448;-50
2023/08/22 05:17:45;;;;;;;37.53;35.53;;;25.70;99.90;;;;;;4953572;28;20487;-50
2023/08/22 05:20:13;;;;;;;37.40;35.63;;;25.60;99.90;;;;;;4953295;28;20507;-53
2023/08/22 05:22:41;;;;;;;37.37;35.67;;;25.70;99.90;;;;;;4953223;29;20452;-51
2023/08/22 05:25:09;;;;;;;36.53;34.90;;;25.70;99.90;;;;;;4953451;29;20535;-53
2023/08/22 05:27:36;;;;;;;39.70;37.90;;;25.70;99.90;;;;;;4953326;28;20542;-52
2023/08/22 05:30:03;;;;;;;36.57;34.87;;;25.70;99.90;;;;;;4953149;28;20500;-51
2023/08/22 05:32:30;;;;;;;38.57;36.70;;;25.70;99.90;;;;;;4953305;28;20448;-52
2023/08/22 05:34:57;;;;;;;35.33;33.63;;;25.70;99.90;;;;;;4953322;28;20535;-51
2023/08/22 05:37:24;;;;;;;37.00;35.27;;;25.70;99.90;;;;;;4953168;28;20471;-51
2023/08/22 05:39:52;;;;;;;37.37;35.63;;;25.70;99.90;;;;;;4953124;28;20475;-50
2023/08/22 05:42:19;;;;;;;36.43;34.50;;;25.60;99.90;;;;;;4953237;28;20473;-51
2023/08/22 05:44:46;;;;;;;36.87;35.17;;;25.70;99.90;;;;;;4953027;28;20487;-50
2023/08/22 05:47:13;;;;;;;35.37;33.70;;;25.70;99.90;;;;;;4952972;28;20484;-50
2023/08/22 05:49:43;;;;;;;35.63;34.10;;;25.70;99.90;;;;;;4953042;28;20859;-50
2023/08/22 05:52:10;;;;;;;35.97;34.27;;;25.70;99.90;;;;;;4953052;29;20536;-50
2023/08/22 05:54:37;;;;;;;36.33;34.70;;;25.60;99.90;;;;;;4952768;28;20485;-51
2023/08/22 05:57:05;;;;;;;38.27;36.47;;;25.70;99.90;;;;;;4953046;28;20476;-50
2023/08/22 05:59:32;;;;;;;39.03;37.03;;;25.70;99.90;;;;;;4952805;29;20482;-50
2023/08/22 06:01:59;;;;;;;37.60;35.70;;;25.70;99.90;;;;;;4952961;28;20548;-52
2023/08/22 06:04:26;;;;;;;37.60;35.67;;;25.70;99.90;;;;;;4952625;29;20485;-50
2023/08/22 06:06:53;;;;;;;36.50;34.80;;;25.70;99.90;;;;;;4952814;28;20827;-51
2023/08/22 06:09:20;;;;;;;39.20;37.40;;;25.70;99.90;;;;;;4951932;28;20480;-50
2023/08/22 06:11:47;;;;;;;36.67;35.07;;;25.60;99.90;;;;;;4952591;28;20469;-52
2023/08/22 06:14:15;;;;;;;35.10;33.50;;;25.70;99.90;;;;;;4952524;29;20996;-50
2023/08/22 06:16:42;;;;;;;35.17;33.53;;;25.70;99.90;;;;;;4952663;28;20476;-50
2023/08/22 06:19:09;;;;;;;36.50;34.70;;;25.70;99.90;;;;;;4952710;28;20444;-54
2023/08/22 06:21:36;;;;;;;37.70;35.80;;;25.70;99.90;;;;;;4952511;28;20504;-50
2023/08/22 06:24:04;;;;;;;37.37;35.57;;;25.70;99.90;;;;;;4952386;28;20472;-52
2023/08/22 06:26:31;;;;;;;36.23;34.43;;;25.70;99.90;;;;;;4952257;28;20507;-54
2023/08/22 06:28:58;;;;;;;36.70;34.77;;;25.70;99.90;;;;;;4952449;28;20491;-50
2023/08/22 06:31:27;;;;;;;37.80;36.07;;;25.70;99.90;;;;;;4952462;28;20830;-52
2023/08/22 06:33:54;;;;;;;36.57;34.93;;;25.70;99.90;;;;;;4952228;28;20955;-51
2023/08/22 06:36:20;;;;;;;36.27;34.60;;;25.60;99.90;;;;;;4952359;28;20484;-50
2023/08/22 06:38:47;;;;;;;34.67;33.17;;;25.60;99.90;;;;;;4952247;28;20480;-51
2023/08/22 06:41:16;;;;;;;39.17;37.27;;;25.70;99.90;;;;;;4952235;28;20501;-50
2023/08/22 06:43:43;;;;;;;38.83;37.03;;;25.70;99.90;;;;;;4951995;28;20456;-50
2023/08/22 06:46:10;;;;;;;37.80;36.07;;;25.70;99.90;;;;;;4952004;28;21028;-50
2023/08/22 06:48:38;;;;;;;37.03;35.33;;;25.70;99.90;;;;;;4952430;28;20983;-50
2023/08/22 06:51:05;;;;;;;36.93;35.20;;;25.70;99.90;;;;;;4952048;28;20496;-51
2023/08/22 06:53:31;;;;;;;37.00;35.20;;;25.60;99.90;;;;;;4951904;28;20528;-53
2023/08/22 06:55:58;;;;;;;37.23;35.53;;;25.70;99.90;;;;;;4952154;28;20449;-50
2023/08/22 06:58:25;;;;;;;36.50;34.80;;;25.60;99.90;;;;;;4952006;28;20481;-50
2023/08/22 07:00:52;;;;;;;37.93;36.23;;;25.70;99.90;;;;;;4951746;28;20491;-50
2023/08/22 07:03:19;;;;;;;37.43;35.63;;;25.70;99.90;;;;;;4951828;28;20537;-50
2023/08/22 07:05:52;;;;;;;36.83;35.20;;;25.70;99.90;;;;;;4951758;28;20448;-51
2023/08/22 07:08:19;;;;;;;36.87;35.10;;;25.70;99.90;;;;;;4951903;29;20449;-50
2023/08/22 07:10:46;;;;;;;35.37;33.57;;;25.60;99.90;;;;;;4951731;28;20500;-51
2023/08/22 07:13:14;;;;;;;35.60;33.90;;;25.70;99.90;;;;;;4951690;28;20476;-50
2023/08/22 07:15:42;;;;;;;37.10;35.50;;;25.60;99.90;;;;;;4951682;28;20547;-51
2023/08/22 07:18:09;;;;;;;37.80;35.90;;;25.70;99.90;;;;;;4951738;28;20448;-52
2023/08/22 07:20:36;;;;;;;38.70;36.90;;;25.70;99.90;;;;;;4951302;29;20472;-50
2023/08/22 07:23:04;;;;;;;36.33;34.63;;;25.70;99.90;;;;;;4951524;28;20480;-50
2023/08/22 07:25:31;;;;;;;36.07;34.40;;;25.60;99.90;;;;;;4951554;28;20488;-50
2023/08/22 07:27:58;;;;;;;36.33;34.43;;;25.70;99.90;;;;;;4951756;28;20579;-52
2023/08/22 07:30:25;;;;;;;36.70;35.00;;;25.60;99.90;;;;;;4951424;28;20512;-51
2023/08/22 07:32:51;;;;;;;37.30;35.60;;;25.70;99.90;;;;;;4951390;28;20484;-50
2023/08/22 07:35:18;;;;;;;36.47;34.70;;;25.70;99.90;;;;;;4951537;28;20487;-53
2023/08/22 07:37:45;;;;;;;36.60;35.00;;;25.70;99.90;;;;;;4951281;29;20472;-50
2023/08/22 07:40:16;;;;;;;36.87;35.30;;;25.70;99.90;;;;;;4951291;28;20500;-50
2023/08/22 07:42:43;;;;;;;36.40;34.70;;;25.70;99.90;;;;;;4951552;28;20502;-51
2023/08/22 07:45:10;;;;;;;36.27;34.57;;;25.70;99.90;;;;;;4951433;28;20495;-50
2023/08/22 07:47:37;;;;;;;36.80;35.03;;;25.70;99.90;;;;;;4951264;29;20528;-51
2023/08/22 07:50:05;;;;;;;37.90;36.20;;;25.70;99.90;;;;;;4951150;28;20523;-50
2023/08/22 07:52:31;;;;;;;35.97;33.93;;;25.70;99.90;;;;;;4951116;28;20956;-51
2023/08/22 07:54:58;;;;;;;35.77;34.00;;;25.70;99.90;;;;;;4951184;28;20476;-51
2023/08/22 07:57:27;;;;;;;36.33;34.63;;;25.70;99.90;;;;;;4951260;28;20473;-51
2023/08/22 07:59:54;;;;;;;35.07;33.47;;;25.70;99.90;;;;;;4951004;28;20491;-50
2023/08/22 08:02:21;;;;;;;34.87;33.17;;;25.70;99.90;;;;;;4950988;28;20444;-52
2023/08/22 08:04:48;;;;;;;33.90;32.37;;;25.70;99.90;;;;;;4950861;28;20473;-51
2023/08/22 08:07:15;;;;;;;38.20;36.30;;;25.70;99.90;;;;;;4950972;28;20871;-50
2023/08/22 08:09:42;;;;;;;36.40;34.80;;;25.70;99.90;;;;;;4950892;28;20449;-50
2023/08/22 08:12:09;;;;;;;35.70;33.90;;;25.70;99.90;;;;;;4950779;29;20506;-51
2023/08/22 08:14:37;;;;;;;37.20;35.67;;;25.70;99.90;;;;;;4951077;28;20536;-49
2023/08/22 08:17:04;;;;;;;39.00;37.00;;;25.70;99.90;;;;;;4951143;28;20468;-49
2023/08/22 08:19:31;;;;;;;38.33;36.63;;;25.70;99.90;;;;;;4951208;28;20448;-49
2023/08/22 08:21:58;;;;;;;36.20;34.40;;;25.70;99.90;;;;;;4950937;28;20496;-49
2023/08/22 08:24:25;;;;;;;37.63;36.03;;;25.70;99.90;;;;;;4950840;28;21134;-49
2023/08/22 08:26:52;;;;;;;36.67;34.90;;;25.70;99.90;;;;;;4950877;28;20530;-49
2023/08/22 08:29:19;;;;;;;38.97;36.67;;;25.70;99.90;;;;;;4950820;28;20484;-49
2023/08/22 08:31:48;;;;;;;40.20;38.30;;;25.70;99.90;;;;;;4950385;28;20596;-49
2023/08/22 08:34:15;;;;;;;37.07;35.30;;;25.70;99.90;;;;;;4950682;29;20453;-49
2023/08/22 08:36:41;;;;;;;37.77;36.07;;;25.70;99.90;;;;;;4950888;28;20852;-51
2023/08/22 08:39:08;;;;;;;38.67;36.77;;;25.70;99.90;;;;;;4950943;28;20476;-49
2023/08/22 08:41:40;;;;;;;40.50;38.47;;;25.80;99.90;;;;;;4950828;28;20518;-50
2023/08/22 08:44:08;;;;;;;36.70;34.70;;;25.70;99.90;;;;;;4950631;28;20488;-50
2023/08/22 08:46:35;;;;;;;37.03;35.03;;;25.70;99.90;;;;;;4950677;28;20571;-49
2023/08/22 08:49:06;;;;;;;37.70;35.67;;;25.70;99.90;;;;;;4950640;29;20477;-49
2023/08/22 08:51:34;;;;;;;36.90;35.10;;;25.70;99.90;;;;;;4950466;29;20500;-49
2023/08/22 08:54:01;;;;;;;36.33;34.37;;;25.80;99.90;;;;;;4950517;28;20477;-49
2023/08/22 08:56:28;;;;;;;37.50;35.60;;;25.80;99.90;;;;;;4950666;29;20479;-52
2023/08/22 08:58:55;;;;;;;37.10;35.33;;;25.80;99.90;;;;;;4950776;28;20480;-50
2023/08/22 09:01:24;;;;;;;39.27;37.20;;;25.80;99.90;;;;;;4950485;28;21007;-49
2023/08/22 09:03:51;;;;;;;37.87;36.00;;;25.80;99.90;;;;;;4950369;28;21022;-49
2023/08/22 09:06:20;;;;;;;40.80;38.70;;;25.80;99.90;;;;;;4950988;28;20759;-49
2023/08/22 09:09:03;;;;;;;37.67;35.77;;;25.80;99.90;;;;;;4950459;28;20532;-50
2023/08/22 09:11:30;;;;;;;36.93;35.13;;;25.80;99.90;;;;;;4950490;29;20465;-52
2023/08/22 09:13:57;;;;;;;36.33;34.43;;;25.80;99.90;;;;;;4950354;28;20480;-49
2023/08/22 09:16:25;;;;;;;36.93;34.77;;;25.80;99.90;;;;;;4950397;29;20861;-50
2023/08/22 09:18:52;;;;;;;37.30;35.40;;;25.80;99.90;;;;;;4950499;29;20495;-50
2023/08/22 09:21:20;;;;;;;36.47;34.63;;;25.80;99.90;;;;;;4950092;29;20505;-52
2023/08/22 09:23:49;;;;;;;37.13;35.30;;;25.80;99.90;;;;;;4950047;28;20472;-50
2023/08/22 09:26:21;;;;;;;38.63;36.30;;;25.80;99.90;;;;;;4950106;28;20452;-51
2023/08/22 09:28:48;;;;;;;38.90;37.00;;;25.80;99.90;;;;;;4950092;29;21247;-51
2023/08/22 09:31:22;;;;;;;39.20;37.20;;;25.80;99.90;;;;;;4949907;29;20464;-51
2023/08/22 09:33:49;;;;;;;39.10;37.10;;;25.80;99.90;;;;;;4949810;29;20455;-54
2023/08/22 09:36:20;;;;;;;37.13;35.17;;;25.90;99.90;;;;;;4950056;28;20484;-56
2023/08/22 09:38:55;;;;;;;36.30;34.50;;;25.80;99.90;;;;;;4950023;29;20441;-53
2023/08/22 09:41:23;;;;;;;37.00;35.10;;;25.80;99.90;;;;;;4949864;28;21003;-51
2023/08/22 09:43:54;;;;;;;37.30;35.40;;;25.80;99.90;;;;;;4950156;29;20448;-51
2023/08/22 09:46:21;;;;;;;39.50;37.50;;;25.90;99.90;;;;;;4953273;29;20467;-54
2023/08/22 09:48:50;;;;;;;38.07;36.07;;;25.90;99.90;;;;;;4952984;29;20829;-51
2023/08/22 09:51:21;;;;;;;36.50;34.70;;;25.80;99.90;;;;;;4953076;28;20507;-52
2023/08/22 09:53:51;;;;;;;37.43;35.40;;;25.90;99.90;;;;;;4952773;29;20469;-53
2023/08/22 09:56:19;;;;;;;35.53;33.93;;;25.90;99.90;;;;;;4952984;29;20448;-53
2023/08/22 09:58:46;;;;;;;38.00;36.20;;;25.80;99.90;;;;;;4952910;28;20522;-50
2023/08/22 10:01:14;;;;;;;36.13;34.43;;;25.90;99.90;;;;;;4952715;29;20514;-49
2023/08/22 10:03:43;;;;;;;36.90;35.30;;;25.90;99.90;;;;;;4952721;29;20579;-51
2023/08/22 10:06:13;;;;;;;37.27;35.47;;;25.90;99.90;;;;;;4952733;29;21014;-50
2023/08/22 10:08:43;;;;;;;37.43;35.63;;;25.90;99.90;;;;;;4952646;29;20572;-50
2023/08/22 10:11:12;;;;;;;37.13;35.23;;;25.90;99.90;;;;;;4952734;29;20468;-50
2023/08/22 10:13:40;;;;;;;35.67;33.80;;;25.90;99.90;;;;;;4952624;28;20451;-51
2023/08/22 10:16:07;;;;;;;34.93;33.23;;;25.90;99.90;;;;;;4952949;28;20480;-53
2023/08/22 10:18:34;;;;;;;35.20;33.40;;;25.90;99.90;;;;;;4952614;28;20445;-50
2023/08/22 10:21:05;;;;;;;37.23;35.13;;;25.90;99.60;;;;;;4952671;29;20477;-50
2023/08/22 10:23:59;;;;;;;36.67;34.87;;;25.90;99.80;;;;;;4952558;29;20451;-51
2023/08/22 10:26:28;;;;;;;36.37;34.60;;;25.90;99.90;;;;;;4952523;29;20451;-49
2023/08/22 10:29:15;;;;;;;37.27;35.30;;;25.90;99.70;;;;;;4952450;29;20860;-50
2023/08/22 10:32:19;;;;;;;36.33;34.73;;;25.90;99.40;;;;;;4952334;29;20469;-50
2023/08/22 10:35:25;;;;;;;34.30;32.47;;;25.90;99.50;;;;;;4952245;28;20456;-49
2023/08/22 10:37:53;;;;;;;37.27;35.47;;;25.90;99.30;;;;;;4952359;28;20516;-50
2023/08/22 10:40:32;;;;;;;36.03;34.33;;;25.90;99.20;;;;;;4952404;29;20461;-49
2023/08/22 10:43:13;;;;;;;35.60;34.00;;;25.90;98.90;;;;;;4952157;28;20952;-49
2023/08/22 10:45:41;;;;;;;35.83;34.13;;;25.90;98.90;;;;;;4952129;29;20451;-52
2023/08/22 10:48:12;;;;;;;36.60;34.93;;;25.90;99.00;;;;;;4952014;28;20882;-50
2023/08/22 10:50:43;;;;;;;35.47;33.77;;;26.00;98.80;;;;;;4952134;29;20508;-51
2023/08/22 10:53:28;;;;;;;37.00;35.20;;;25.90;98.60;;;;;;4952197;29;20487;-50
2023/08/22 10:55:57;;;;;;;36.10;34.20;;;26.00;98.50;;;;;;4951663;28;20441;-49
2023/08/22 10:58:37;;;;;;;35.90;34.00;;;26.00;98.60;;;;;;4952004;28;20444;-50
2023/08/22 11:01:16;;;;;;;34.50;32.90;;;26.00;98.70;;;;;;4952059;29;20551;-52
2023/08/22 11:03:44;;;;;;;35.30;33.70;;;26.00;98.60;;;;;;4952038;29;20448;-51
2023/08/22 11:06:12;;;;;;;37.17;35.13;;;26.00;98.60;;;;;;4952395;28;20452;-54
2023/08/22 11:08:39;;;;;;;35.53;33.47;;;26.00;98.30;;;;;;4951985;28;20484;-52
2023/08/22 11:11:09;;;;;;;35.10;33.40;;;26.00;98.20;;;;;;4952316;28;20497;-51
2023/08/22 11:13:37;;;;;;;36.10;34.30;;;26.00;98.20;;;;;;4952533;29;20581;-57
2023/08/22 11:16:08;;;;;;;34.07;32.33;;;26.00;98.30;;;;;;4952602;29;20449;-51
2023/08/22 11:18:35;;;;;;;36.43;34.83;;;26.00;98.20;;;;;;4952558;29;20441;-55
2023/08/22 11:21:03;;;;;;;34.93;33.33;;;26.00;98.30;;;;;;4951769;28;20504;-55
2023/08/22 11:23:32;;;;;;;36.97;35.17;;;26.00;98.30;;;;;;4951606;28;20876;-51
2023/08/22 11:26:00;;;;;;;34.80;32.80;;;26.10;98.20;;;;;;4951685;28;20455;-53
2023/08/22 11:28:33;;;;;;;34.10;32.53;;;26.00;98.20;;;;;;4951625;28;20495;-52
2023/08/22 11:31:00;;;;;;;35.23;33.53;;;26.00;98.30;;;;;;4951685;28;20925;-53
2023/08/22 11:33:35;;;;;;;36.30;34.60;;;26.00;98.40;;;;;;4951481;28;20480;-53
2023/08/22 11:36:03;;;;;;;36.13;34.20;;;26.10;98.40;;;;;;4951580;28;20555;-51
2023/08/22 11:38:33;;;;;;;34.33;32.73;;;26.10;98.50;;;;;;4951475;29;20936;-52
2023/08/22 11:41:01;;;;;;;35.47;33.70;;;26.10;98.40;;;;;;4952047;28;20468;-50
2023/08/22 11:43:28;;;;;;;35.10;33.20;;;26.10;98.50;;;;;;4951860;29;20819;-54
2023/08/22 11:45:56;;;;;;;35.97;34.07;;;26.10;98.50;;;;;;4951832;28;20905;-55
2023/08/22 11:48:24;;;;;;;38.47;36.13;;;26.10;98.50;;;;;;4951687;28;20528;-55
2023/08/22 11:50:52;;;;;;;34.30;32.70;;;26.10;98.40;;;;;;4951801;29;20721;-51
2023/08/22 11:53:18;;;;;;;39.53;37.73;;;26.10;98.50;;;;;;4951645;28;20477;-52
2023/08/22 11:55:49;;;;;;;35.87;34.17;;;26.10;98.50;;;;;;4952249;28;20579;-52
2023/08/22 11:58:16;;;;;;;36.87;35.00;;;26.10;98.60;;;;;;4951605;28;20502;-52
2023/08/22 12:00:43;;;;;;;36.30;34.33;;;26.10;98.50;;;;;;4951855;29;20558;-55
2023/08/22 12:03:11;;;;;;;37.17;35.37;;;26.20;98.50;;;;;;4952170;28;20481;-57
2023/08/22 12:05:39;;;;;;;34.57;32.70;;;26.10;98.70;;;;;;4952422;28;20517;-57
2023/08/22 12:08:20;;;;;;;36.60;34.90;;;26.20;98.80;;;;;;4951396;28;20523;-57
2023/08/22 12:10:48;;;;;;;36.33;34.40;;;26.20;98.90;;;;;;4951878;29;20461;-56
2023/08/22 12:13:17;;;;;;;37.90;35.90;;;26.20;98.60;;;;;;4951826;28;21239;-54
2023/08/22 12:15:44;;;;;;;35.27;33.67;;;26.20;98.30;;;;;;4951518;28;20960;-54
2023/08/22 12:18:12;;;;;;;34.40;32.60;;;26.20;98.00;;;;;;4951596;29;20469;-55
2023/08/22 12:20:42;;;;;;;37.67;35.40;;;26.20;98.00;;;;;;4951496;28;20500;-55
2023/08/22 12:23:09;;;;;;;38.77;37.00;;;26.20;98.00;;;;;;4951272;28;20484;-56
2023/08/22 12:25:38;;;;;;;35.77;34.10;;;26.20;98.00;;;;;;4951527;28;20968;-52
2023/08/22 12:28:06;;;;;;;36.20;34.50;;;26.20;97.90;;;;;;4951373;29;20527;-56
2023/08/22 12:30:33;;;;;;;37.77;35.87;;;26.30;97.80;;;;;;4951156;28;20500;-53
2023/08/22 12:33:02;;;;;;;37.70;35.80;;;26.30;97.80;;;;;;4950995;29;20937;-56